createdAt,value
2018-12-01T00:09:46.107Z,6.20
2018-12-01T00:19:50.415Z,6.20
2018-12-01T00:29:53.748Z,6.20
2018-12-01T00:39:57.047Z,6.20
2018-12-01T00:50:00.434Z,6.10
2018-12-01T01:00:05.515Z,6.20
2018-12-01T01:10:10.029Z,6.10
2018-12-01T01:20:14.595Z,6.10
2018-12-01T01:30:22.059Z,6.10
2018-12-01T01:40:25.420Z,6.10
2018-12-01T01:50:28.751Z,6.20
2018-12-01T02:00:32.148Z,6.20
2018-12-01T02:10:35.448Z,6.20
2018-12-01T02:20:38.863Z,6.30
2018-12-01T02:30:42.135Z,6.30
2018-12-01T02:40:45.506Z,6.30
2018-12-01T02:50:48.831Z,6.30
2018-12-01T03:00:52.174Z,6.30
2018-12-01T03:10:55.551Z,6.30
2018-12-01T03:20:58.835Z,6.30
2018-12-01T03:31:02.192Z,6.40
2018-12-01T03:41:05.567Z,6.40
2018-12-01T03:51:08.872Z,6.40
2018-12-01T04:01:12.206Z,6.40
2018-12-01T04:11:15.558Z,6.40
2018-12-01T04:21:18.900Z,6.40
2018-12-01T04:31:22.258Z,6.40
2018-12-01T04:41:25.578Z,6.50
2018-12-01T04:51:28.934Z,6.50
2018-12-01T05:01:32.278Z,6.50
2018-12-01T05:11:36.502Z,6.50
2018-12-01T05:21:39.898Z,6.50
2018-12-01T05:31:43.224Z,6.50
2018-12-01T05:41:46.590Z,6.50
2018-12-01T05:51:49.939Z,6.50
2018-12-01T06:01:53.320Z,6.60
2018-12-01T06:11:56.534Z,6.50
2018-12-01T06:22:00.878Z,6.50
2018-12-01T06:32:04.439Z,6.50
2018-12-01T06:42:07.866Z,6.50
2018-12-01T06:52:11.343Z,6.50
2018-12-01T07:02:14.872Z,6.50
2018-12-01T07:12:18.207Z,6.50
2018-12-01T07:22:21.555Z,6.50
2018-12-01T07:32:24.927Z,6.60
2018-12-01T07:42:28.142Z,6.60
2018-12-01T07:52:31.594Z,6.50
2018-12-01T08:02:34.987Z,6.60
2018-12-01T08:12:38.411Z,6.70
2018-12-01T08:22:41.987Z,6.60
2018-12-01T08:32:45.282Z,6.90
2018-12-01T08:42:48.672Z,6.90
2018-12-01T08:52:52.446Z,6.90
2018-12-01T09:02:59.373Z,6.90
2018-12-01T09:13:02.591Z,7.10
2018-12-01T09:23:06.251Z,7.20
2018-12-01T09:33:09.472Z,7.20
2018-12-01T09:43:12.696Z,7.30
2018-12-01T09:53:15.942Z,7.50
2018-12-01T10:03:19.662Z,7.80
2018-12-01T10:13:23.232Z,8.10
2018-12-01T10:23:26.443Z,8.40
2018-12-01T10:33:29.659Z,8.70
2018-12-01T10:43:32.912Z,9.10
2018-12-01T10:53:36.380Z,9.50
2018-12-01T11:03:39.751Z,9.70
2018-12-01T11:13:43.069Z,10.00
2018-12-01T11:23:46.299Z,10.20
2018-12-01T11:33:49.780Z,10.60
2018-12-01T11:43:53.099Z,10.40
2018-12-01T11:53:56.703Z,10.50
2018-12-01T12:03:59.935Z,10.40
2018-12-01T12:14:03.164Z,10.50
2018-12-01T12:24:06.491Z,10.80
2018-12-01T12:34:09.835Z,11.00
2018-12-01T12:44:13.336Z,10.90
2018-12-01T12:54:16.867Z,10.80
2018-12-01T13:04:20.168Z,10.90
2018-12-01T13:14:23.770Z,10.90
2018-12-01T13:24:27.171Z,10.90
2018-12-01T13:34:31.335Z,10.90
2018-12-01T13:44:34.783Z,11.10
2018-12-01T13:54:38.120Z,11.10
2018-12-01T14:04:41.473Z,11.10
2018-12-01T14:14:44.804Z,11.10
2018-12-01T14:24:48.169Z,10.90
2018-12-01T14:34:51.508Z,10.80
2018-12-01T14:44:54.851Z,10.80
2018-12-01T14:54:58.084Z,11.50
2018-12-01T15:05:01.311Z,10.80
2018-12-01T15:15:06.267Z,10.50
2018-12-01T15:25:11.848Z,10.30
2018-12-01T15:35:15.328Z,10.00
2018-12-01T15:45:20.496Z,10.20
2018-12-01T15:55:24.312Z,9.60
2018-12-01T16:05:27.929Z,9.30
2018-12-01T16:15:34.108Z,9.20
2018-12-01T16:25:37.587Z,9.00
2018-12-01T16:35:40.919Z,8.80
2018-12-01T16:45:45.514Z,8.40
2018-12-01T16:55:49.167Z,8.40
2018-12-01T17:05:55.267Z,8.30
2018-12-01T17:15:59.090Z,8.20
2018-12-01T17:26:02.465Z,8.20
2018-12-01T17:36:05.945Z,8.20
2018-12-01T17:46:09.595Z,8.80
2018-12-01T17:56:13.214Z,8.00
2018-12-01T18:06:16.845Z,7.80
2018-12-01T18:16:20.171Z,7.60
2018-12-01T18:26:23.559Z,8.10
2018-12-01T18:36:26.838Z,7.50
2018-12-01T18:46:30.193Z,7.50
2018-12-01T18:56:34.635Z,7.70
2018-12-01T19:06:38.210Z,7.80
2018-12-01T19:16:41.802Z,8.00
2018-12-01T19:26:45.127Z,8.00
2018-12-01T19:36:48.470Z,8.70
2018-12-01T19:46:51.875Z,8.20
2018-12-01T19:56:55.516Z,8.10
2018-12-01T20:06:58.851Z,8.20
2018-12-01T20:17:02.162Z,8.20
2018-12-01T20:27:06.376Z,8.20
2018-12-01T20:37:15.087Z,8.20
2018-12-01T20:47:18.670Z,8.20
2018-12-01T20:57:26.691Z,8.20
2018-12-01T21:07:30.267Z,8.20
2018-12-01T21:17:33.704Z,8.20
2018-12-01T21:27:37.390Z,8.30
2018-12-01T21:37:40.957Z,8.80
2018-12-01T21:47:44.688Z,8.40
2018-12-01T21:57:48.908Z,8.50
2018-12-01T22:07:52.620Z,8.60
2018-12-01T22:17:57.020Z,8.70
2018-12-01T22:28:00.555Z,8.80
2018-12-01T22:38:04.061Z,8.90
2018-12-01T22:48:09.228Z,9.00
2018-12-01T22:58:13.926Z,9.00
2018-12-01T23:08:18.827Z,9.00
2018-12-01T23:18:23.671Z,9.00
2018-12-01T23:28:27.146Z,9.10
2018-12-01T23:38:30.483Z,9.10
2018-12-01T23:48:33.838Z,9.20
2018-12-01T23:58:37.211Z,9.20
